Terminal Aerodrome Forecast
Issued by NWS St Louis, MO

Home | Current Version | Previous Version | Text Only | Print | Product List | Glossary On
Versions: 1 2 3 4 5 6 7 8 9 10 11 12 13 14 15 16 17 18 19 20 21 22 23 24 25 26 27
599
FTUS43 KLSX 190540
TAFSTL
TAF
KSTL 190540Z 1906/2012 13006KT P6SM VCSH OVC060
      TEMPO 1906/1909 5SM -SHRA BR
     FM190900 13005KT 5SM BR VCSH OVC030
     FM191500 11005KT 2SM -SHRA BR OVC010
     FM191800 10005KT 3SM -SHRA BR OVC008
     FM200100 VRB04KT 3SM BR OVC008=

USA.gov is the U.S. government's official web portal to all federal, state and local government web resources and services.